Time;durP1;ratioP1;P1;durP2;ratioP2;P2;SDS_P1;SDS_P2;PMS_P1;PMS_P2;Temp;Humidity;BMP_temperature;BMP_pressure;BME280_temperature;BME280_humidity;BME280_pressure;Samples;Min_cycle;Max_cycle;Signal;HPM_P1;HPM_P2
2022/05/05 00:00:58;;;;;;;2;1.6;;;;;;;10.74;95.22266;939.7556;;;;
2022/05/05 00:03:22;;;;;;;2.5;1.6;;;;;;;10.71;94.89648;939.8469;;;;
2022/05/05 00:05:51;;;;;;;1.7;1.6;;;;;;;10.82;94.57813;939.8206;;;;
2022/05/05 00:08:18;;;;;;;2.1;1.6;;;;;;;10.84;94.25;939.8239;;;;
2022/05/05 00:15:34;;;;;;;3.1;1.8;;;;;;;10.87;94.59863;939.9509;;;;
2022/05/05 00:18:00;;;;;;;2.1;1.9;;;;;;;10.97;94.75781;939.9137;;;;
2022/05/05 00:20:25;;;;;;;2.2;1.8;;;;;;;11.06;94.24219;939.9086;;;;
2022/05/05 00:22:51;;;;;;;1.5;1.4;;;;;;;11.07;93.54492;939.8831;;;;
2022/05/05 00:25:16;;;;;;;2;1.5;;;;;;;11.07;93.61328;939.8457;;;;
2022/05/05 00:27:43;;;;;;;2.8;1.8;;;;;;;11.11;94.10352;939.7855;;;;
2022/05/05 00:30:08;;;;;;;1.8;1.7;;;;;;;11.22;93.81836;939.6577;;;;
2022/05/05 00:32:36;;;;;;;2.2;1.6;;;;;;;11.23;93.24902;939.4426;;;;
2022/05/05 00:35:01;;;;;;;2.9;1.6;;;;;;;11.22;93.41797;939.4537;;;;
2022/05/05 00:37:31;;;;;;;1.7;1.6;;;;;;;11.09;93.89355;939.5653;;;;
2022/05/05 00:39:59;;;;;;;2.5;1.6;;;;;;;10.9;94.98438;939.5386;;;;
2022/05/05 00:42:24;;;;;;;2.7;1.7;;;;;;;10.76;95.74023;939.4508;;;;
2022/05/05 00:44:50;;;;;;;2.3;1.8;;;;;;;10.84;95.61035;939.5029;;;;
2022/05/05 00:47:16;;;;;;;1.5;1.3;;;;;;;10.75;96.36719;939.3869;;;;
2022/05/05 00:49:42;;;;;;;2.1;1.4;;;;;;;10.82;95.85547;939.4437;;;;
2022/05/05 00:52:07;;;;;;;2.8;1.5;;;;;;;10.93;95.55176;939.3755;;;;
2022/05/05 00:54:33;;;;;;;2.2;1.7;;;;;;;11.06;95.22363;939.3635;;;;
2022/05/05 00:56:58;;;;;;;3.1;1.5;;;;;;;11.07;94.74512;939.3564;;;;
2022/05/05 00:59:26;;;;;;;2.9;1.6;;;;;;;11.1;94.33008;939.3017;;;;
2022/05/05 01:01:51;;;;;;;2.1;1.6;;;;;;;11;93.89746;939.3267;;;;
2022/05/05 01:04:20;;;;;;;2.4;1.5;;;;;;;11;93.53125;939.3499;;;;
2022/05/05 01:06:45;;;;;;;2;1.8;;;;;;;10.93;93.66406;939.397;;;;
2022/05/05 01:09:11;;;;;;;3.2;1.8;;;;;;;11;93.81543;939.3339;;;;
2022/05/05 01:11:36;;;;;;;2;1.8;;;;;;;10.98;94.14453;939.3187;;;;
2022/05/05 01:14:03;;;;;;;3.1;2;;;;;;;10.95;94.27441;939.2698;;;;
2022/05/05 01:16:28;;;;;;;2.1;1.5;;;;;;;10.93;94.35156;939.3613;;;;
2022/05/05 01:18:56;;;;;;;1.7;1.6;;;;;;;10.91;94.18652;939.365;;;;
2022/05/05 01:21:21;;;;;;;2.1;1.4;;;;;;;10.7;94.46094;939.3563;;;;
2022/05/05 01:23:49;;;;;;;3.4;1.8;;;;;;;10.44;96.11426;939.3267;;;;
2022/05/05 01:28:39;;;;;;;3.2;1.7;;;;;;;10.44;96.31934;939.3251;;;;
2022/05/05 01:31:09;;;;;;;2.1;1.6;;;;;;;10.39;96.56055;939.3674;;;;
2022/05/05 01:33:33;;;;;;;2.2;1.7;;;;;;;10.34;96.76465;939.373;;;;
2022/05/05 01:36:01;;;;;;;3.1;2.1;;;;;;;10.35;96.98633;939.3565;;;;
2022/05/05 01:38:26;;;;;;;2.1;1.7;;;;;;;10.39;96.66309;939.3808;;;;
2022/05/05 01:40:54;;;;;;;1.8;1.5;;;;;;;10.35;96.62109;939.3469;;;;
2022/05/05 01:43:19;;;;;;;2;1.6;;;;;;;10.38;96.61523;939.3456;;;;
2022/05/05 01:45:48;;;;;;;2.3;1.8;;;;;;;10.38;96.35254;939.3918;;;;
2022/05/05 01:48:13;;;;;;;1.7;1.5;;;;;;;10.31;96.58789;939.4116;;;;
2022/05/05 01:50:41;;;;;;;2;1.8;;;;;;;10.2;97.33984;939.4113;;;;
2022/05/05 01:53:06;;;;;;;2.4;1.7;;;;;;;10.06;98.07324;939.4072;;;;
2022/05/05 01:55:33;;;;;;;1.6;1.5;;;;;;;10.02;98.61035;939.3293;;;;
2022/05/05 01:57:59;;;;;;;1.7;1.6;;;;;;;10.09;98.64941;939.3336;;;;
2022/05/05 02:00:28;;;;;;;1.7;1.6;;;;;;;10.18;97.50488;939.2678;;;;
2022/05/05 02:02:53;;;;;;;1.6;1.5;;;;;;;10.17;97.13965;939.2813;;;;
2022/05/05 02:05:22;;;;;;;1.6;1.5;;;;;;;10.05;97.12207;939.2773;;;;
2022/05/05 02:08:18;;;;;;;1.8;1.7;;;;;;;9.99;97.79199;939.2985;;;;
2022/05/05 02:10:55;;;;;;;2.7;2.1;;;;;;;9.84;98.4209;939.2433;;;;
2022/05/05 02:13:22;;;;;;;2.6;1.8;;;;;;;9.81;98.9707;939.2092;;;;
2022/05/05 02:15:49;;;;;;;2.9;1.9;;;;;;;9.69;99.17383;939.2139;;;;
2022/05/05 02:18:18;;;;;;;1.6;1.5;;;;;;;9.74;99.51465;939.2003;;;;
2022/05/05 02:20:43;;;;;;;2.8;1.8;;;;;;;9.79;98.87793;939.2478;;;;
2022/05/05 02:23:09;;;;;;;2.1;1.8;;;;;;;9.98;98.46289;939.2268;;;;
2022/05/05 02:25:34;;;;;;;2.6;1.9;;;;;;;10.08;97.90625;939.2722;;;;
2022/05/05 02:28:00;;;;;;;3.3;1.8;;;;;;;10.2;97.5332;939.2832;;;;
2022/05/05 02:30:26;;;;;;;1.6;1.5;;;;;;;10.09;96.63086;939.2541;;;;
2022/05/05 02:32:53;;;;;;;2.1;1.9;;;;;;;9.99;97.2373;939.2756;;;;
2022/05/05 02:38:42;;;;;;;2.2;1.7;;;;;;;9.98;97.4707;939.2372;;;;
2022/05/05 02:40:34;;;;;;;1.7;1.6;;;;;;;9.97;96.59277;939.3134;;;;
2022/05/05 02:42:58;;;;;;;1.7;1.6;;;;;;;10.01;96.67188;939.3286;;;;
2022/05/05 02:45:32;;;;;;;6;1.6;;;;;;;10.15;96.13184;939.301;;;;
2022/05/05 02:47:59;;;;;;;1.8;1.5;;;;;;;10.2;95.47949;939.3684;;;;
2022/05/05 02:50:25;;;;;;;2.1;1.7;;;;;;;10.33;95.0166;939.3212;;;;
2022/05/05 02:52:52;;;;;;;1.5;1.4;;;;;;;10.22;94.82422;939.2658;;;;
2022/05/05 02:55:17;;;;;;;1.6;1.5;;;;;;;10.21;94.85449;939.3298;;;;
2022/05/05 02:57:44;;;;;;;2.2;1.5;;;;;;;10.3;94.58887;939.308;;;;
2022/05/05 03:00:11;;;;;;;1.7;1.6;;;;;;;10.19;95.16992;939.334;;;;
2022/05/05 03:02:39;;;;;;;1.8;1.5;;;;;;;10.09;95.39648;939.2913;;;;
2022/05/05 03:05:08;;;;;;;2.9;1.8;;;;;;;10.25;94.75977;939.3059;;;;
2022/05/05 03:07:34;;;;;;;1.7;1.6;;;;;;;10.25;94.67969;939.2279;;;;
2022/05/05 03:09:59;;;;;;;1.6;1.5;;;;;;;10.15;95.01367;939.2405;;;;
2022/05/05 03:12:24;;;;;;;2;1.9;;;;;;;10.17;95.0957;939.2717;;;;
2022/05/05 03:14:52;;;;;;;1.6;1.5;;;;;;;10.28;94.92676;939.3055;;;;
2022/05/05 03:17:17;;;;;;;1.8;1.7;;;;;;;10.09;94.93164;939.2222;;;;
2022/05/05 03:19:46;;;;;;;1.8;1.7;;;;;;;9.99;95.61816;939.293;;;;
2022/05/05 03:22:11;;;;;;;1.8;1.7;;;;;;;9.97;95.91992;939.28;;;;
2022/05/05 03:24:36;;;;;;;2.2;2;;;;;;;9.96;96.55664;939.3348;;;;
2022/05/05 03:27:02;;;;;;;1.8;1.7;;;;;;;10.04;96.09375;939.3401;;;;
2022/05/05 03:29:28;;;;;;;1.8;1.7;;;;;;;10.06;96.08887;939.3563;;;;
2022/05/05 03:31:53;;;;;;;2.3;1.7;;;;;;;10;95.9834;939.4006;;;;
2022/05/05 03:34:22;;;;;;;2.2;2;;;;;;;9.98;96.05664;939.312;;;;
2022/05/05 03:36:48;;;;;;;1.5;1.4;;;;;;;9.97;96.00977;939.4064;;;;
2022/05/05 03:39:16;;;;;;;1.8;1.7;;;;;;;9.85;96.71484;939.4144;;;;
2022/05/05 03:41:41;;;;;;;2.2;1.7;;;;;;;9.84;97.44043;939.3784;;;;
2022/05/05 03:44:07;;;;;;;1.9;1.8;;;;;;;9.96;96.53418;939.3865;;;;
2022/05/05 03:46:33;;;;;;;1.6;1.5;;;;;;;9.88;96.08105;939.3567;;;;
2022/05/05 03:49:02;;;;;;;2.4;1.6;;;;;;;9.87;96.5918;939.4139;;;;
2022/05/05 03:51:27;;;;;;;2.3;2;;;;;;;9.96;96.24902;939.4366;;;;
2022/05/05 03:53:54;;;;;;;2.7;1.9;;;;;;;10.08;95.67969;939.4615;;;;
2022/05/05 03:56:19;;;;;;;5.6;3.1;;;;;;;9.98;95.66895;939.467;;;;
2022/05/05 03:58:45;;;;;;;4.2;2.6;;;;;;;9.97;96.02246;939.4766;;;;
2022/05/05 04:02:37;;;;;;;2.6;2.4;;;;;;;10.26;95.18359;939.4842;;;;
2022/05/05 04:10:01;;;;;;;3.5;2;;;;;;;10.21;95.39063;939.3875;;;;
2022/05/05 04:12:26;;;;;;;3.5;2.1;;;;;;;10.17;95.74805;939.4619;;;;
2022/05/05 04:14:53;;;;;;;2;1.8;;;;;;;10.07;96.5127;939.3985;;;;
2022/05/05 04:17:21;;;;;;;4.9;2.4;;;;;;;10.14;96.20703;939.4503;;;;
2022/05/05 04:19:46;;;;;;;4.8;2.1;;;;;;;10.27;95.32422;939.5226;;;;
2022/05/05 04:22:12;;;;;;;3;2;;;;;;;10.26;95.06055;939.5145;;;;
2022/05/05 04:24:37;;;;;;;2.5;2;;;;;;;10.16;95.57422;939.473;;;;
2022/05/05 04:27:09;;;;;;;2.8;1.9;;;;;;;10.15;96.31152;939.4115;;;;
2022/05/05 04:29:37;;;;;;;3.2;1.8;;;;;;;10.15;95.86914;939.5118;;;;
2022/05/05 04:32:02;;;;;;;2.7;1.8;;;;;;;10.27;95.43848;939.5744;;;;
2022/05/05 04:34:32;;;;;;;2.9;2.6;;;;;;;10.42;94.85645;939.5916;;;;
2022/05/05 04:37:01;;;;;;;2.8;2.1;;;;;;;10.44;94.58398;939.5488;;;;
2022/05/05 04:39:26;;;;;;;4.1;2.2;;;;;;;10.38;94.88086;939.512;;;;
2022/05/05 04:41:56;;;;;;;4.2;1.9;;;;;;;10.31;94.72754;939.5471;;;;
2022/05/05 04:45:05;;;;;;;3.5;2.7;;;;;;;10.16;95.30078;939.5733;;;;
2022/05/05 04:48:16;;;;;;;4.3;2.8;;;;;;;10.16;96.18848;939.6256;;;;
2022/05/05 04:51:09;;;;;;;4.2;2.4;;;;;;;10.32;95.61035;939.5726;;;;
2022/05/05 04:53:35;;;;;;;4.1;2.2;;;;;;;10.28;95.45215;939.5036;;;;
2022/05/05 04:56:02;;;;;;;3.9;2.3;;;;;;;10.39;95.5332;939.4963;;;;
2022/05/05 04:58:27;;;;;;;3.5;1.9;;;;;;;10.47;94.84375;939.4768;;;;
2022/05/05 05:00:53;;;;;;;2.8;1.9;;;;;;;10.62;94.06641;939.5298;;;;
2022/05/05 05:03:38;;;;;;;2.7;2.1;;;;;;;10.7;93.36426;939.5441;;;;
2022/05/05 05:05:43;;;;;;;3.7;1.9;;;;;;;10.59;93.6582;939.541;;;;
2022/05/05 05:08:09;;;;;;;2.4;2;;;;;;;10.7;94.16211;939.4772;;;;
2022/05/05 05:10:35;;;;;;;2.4;1.9;;;;;;;10.72;93.25391;939.4894;;;;
2022/05/05 05:13:00;;;;;;;3;2.2;;;;;;;10.59;94.37793;939.4573;;;;
2022/05/05 05:15:25;;;;;;;3.2;2.3;;;;;;;10.7;93.94629;939.4382;;;;
2022/05/05 05:17:50;;;;;;;3.1;2.3;;;;;;;10.77;93.1377;939.4811;;;;
2022/05/05 05:20:15;;;;;;;3.7;2.2;;;;;;;10.75;93.94531;939.4833;;;;
2022/05/05 05:22:40;;;;;;;2.2;2;;;;;;;10.8;93.08691;939.4026;;;;
2022/05/05 05:25:05;;;;;;;2.7;2.2;;;;;;;10.97;92.40527;939.4094;;;;
2022/05/05 05:27:31;;;;;;;2.4;2.2;;;;;;;11.02;92.2666;939.3806;;;;
2022/05/05 05:29:57;;;;;;;4.2;2.2;;;;;;;11.1;91.93848;939.3853;;;;
2022/05/05 05:32:23;;;;;;;3.2;2.3;;;;;;;11.12;94.16309;939.3768;;;;
2022/05/05 05:34:47;;;;;;;2.4;2;;;;;;;11.26;92.35059;939.4006;;;;
2022/05/05 05:37:13;;;;;;;3.8;2;;;;;;;11.34;91.18066;939.2801;;;;
2022/05/05 05:39:38;;;;;;;3.4;2.4;;;;;;;11.72;90.22754;939.2755;;;;
2022/05/05 05:42:03;;;;;;;3.3;2.4;;;;;;;12;89.29102;939.3488;;;;
2022/05/05 05:44:28;;;;;;;2.3;1.9;;;;;;;11.95;89.29199;939.2654;;;;
2022/05/05 05:46:53;;;;;;;3.6;1.9;;;;;;;12.08;88.75781;939.3032;;;;
2022/05/05 05:49:19;;;;;;;2.1;1.7;;;;;;;12.36;86.89844;939.2975;;;;
2022/05/05 05:51:44;;;;;;;1.9;1.6;;;;;;;12.25;86.05176;939.3762;;;;
2022/05/05 05:54:09;;;;;;;4.2;2;;;;;;;12.34;85.55371;939.4228;;;;
2022/05/05 05:56:34;;;;;;;1.4;1.3;;;;;;;12.5;84.70215;939.348;;;;
2022/05/05 05:59:01;;;;;;;1.4;1.3;;;;;;;12.3;86.22266;939.3748;;;;
2022/05/05 06:03:53;;;;;;;1.4;1.3;;;;;;;12.41;85.89063;939.4107;;;;
2022/05/05 06:03:56;;;;;;;2.7;1.4;;;;;;;;;;;;;
2022/05/05 06:06:15;;;;;;;2;1.4;;;;;;;;;;;;;
2022/05/05 06:08:40;;;;;;;2;1.6;;;;;;;;;;;;;
2022/05/05 06:11:05;;;;;;;1.6;1.5;;;;;;;;;;;;;
2022/05/05 06:13:30;;;;;;;1.2;1.1;;;;;;;;;;;;;
2022/05/05 06:15:55;;;;;;;1.4;1.2;;;;;;;;;;;;;
2022/05/05 06:18:21;;;;;;;1.1;1;;;;;;;;;;;;;
2022/05/05 06:20:46;;;;;;;1.2;1.1;;;;;;;;;;;;;
2022/05/05 06:23:11;;;;;;;0.9;0.9;;;;;;;;;;;;;
2022/05/05 06:25:41;;;;;;;1.5;1.1;;;;;;;;;;;;;
2022/05/05 06:28:13;;;;;;;1.3;1.2;;;;;;;;;;;;;
2022/05/05 06:30:45;;;;;;;1.9;1.1;;;;;;;;;;;;;
2022/05/05 06:33:18;;;;;;;1.4;1.3;;;;;;;;;;;;;
2022/05/05 06:35:50;;;;;;;3.4;1.2;;;;;;;;;;;;;
2022/05/05 06:38:22;;;;;;;1.1;1;;;;;;;;;;;;;
2022/05/05 06:40:47;;;;;;;1.7;1.5;;;;;;;;;;;;;
2022/05/05 06:43:20;;;;;;;3.1;1.7;;;;;;;;;;;;;
2022/05/05 06:45:45;;;;;;;1.4;1.3;;;;;;;;;;;;;
2022/05/05 06:56:19;;;;;;;2;1.1;;;;;;;;;;;;;
2022/05/05 06:58:47;;;;;;;6;1.9;;;;;;;;;;;;;
2022/05/05 07:03:37;;;;;;;6.5;2.3;;;;;;;;;;;;;
2022/05/05 07:06:05;;;;;;;2;1.8;;;;;;;;;;;;;
2022/05/05 07:10:52;;;;;;;1.3;1.2;;;;;;;;;;;;;
2022/05/05 07:10:57;;;;;;;3;1.3;;;;;;;;;;;;;
2022/05/05 07:13:24;;;;;;;1;0.9;;;;;;;;;;;;;
2022/05/05 07:15:50;;;;;;;2.3;1.2;;;;;;;;;;;;;
2022/05/05 07:18:23;;;;;;;1.4;0.9;;;;;;;;;;;;;
2022/05/05 07:20:56;;;;;;;1;0.9;;;;;;;;;;;;;
2022/05/05 07:23:25;;;;;;;1.1;0.8;;;;;;;;;;;;;
2022/05/05 07:28:49;;;;;;;1.3;1.2;;;;;;;;;;;;;
2022/05/05 07:31:14;;;;;;;1.2;1.1;;;;;;;;;;;;;
2022/05/05 07:33:40;;;;;;;0.6;0.6;;;;;;;;;;;;;
2022/05/05 07:36:05;;;;;;;1.3;0.8;;;;;;;;;;;;;
2022/05/05 07:38:31;;;;;;;1.2;0.8;;;;;;;;;;;;;
2022/05/05 07:40:56;;;;;;;1.5;0.9;;;;;;;;;;;;;
2022/05/05 07:43:23;;;;;;;1.8;1.1;;;;;;;;;;;;;
2022/05/05 07:45:47;;;;;;;0.8;0.8;;;;;;;;;;;;;
2022/05/05 07:48:15;;;;;;;0.9;0.9;;;;;;;;;;;;;
2022/05/05 07:50:40;;;;;;;1.3;0.7;;;;;;;;;;;;;
2022/05/05 07:53:07;;;;;;;1.5;0.9;;;;;;;;;;;;;
2022/05/05 07:55:32;;;;;;;0.8;0.8;;;;;;;;;;;;;
2022/05/05 07:57:58;;;;;;;2.4;0.9;;;;;;;;;;;;;
2022/05/05 08:00:23;;;;;;;1.5;0.9;;;;;;;;;;;;;
2022/05/05 08:02:53;;;;;;;0.7;0.7;;;;;;;;;;;;;
2022/05/05 08:05:22;;;;;;;2;0.9;;;;;;;;;;;;;
2022/05/05 08:07:48;;;;;;;1.1;1;;;;;;;;;;;;;
2022/05/05 08:10:13;;;;;;;1.5;1;;;;;;;;;;;;;
2022/05/05 08:12:38;;;;;;;2.2;1.2;;;;;;;;;;;;;
2022/05/05 08:15:06;;;;;;;1.7;1.2;;;;;;;;;;;;;
2022/05/05 08:17:33;;;;;;;1.8;1.1;;;;;;;;;;;;;
2022/05/05 08:19:55;;;;;;;1.1;0.9;;;;;;;;;;;;;
2022/05/05 08:22:20;;;;;;;1.2;1.1;;;;;;;;;;;;;
2022/05/05 08:29:36;;;;;;;1.4;1.1;;;;;;;;;;;;;
2022/05/05 08:32:06;;;;;;;1.1;1;;;;;;;;;;;;;
2022/05/05 08:34:31;;;;;;;1.2;1.1;;;;;;;;;;;;;
2022/05/05 08:36:59;;;;;;;1.6;1.2;;;;;;;;;;;;;
2022/05/05 08:39:24;;;;;;;1.1;1.1;;;;;;;;;;;;;
2022/05/05 08:41:51;;;;;;;1.1;1;;;;;;;;;;;;;
2022/05/05 08:44:16;;;;;;;1.3;1.2;;;;;;;;;;;;;
2022/05/05 08:46:42;;;;;;;1.5;1.4;;;;;;;;;;;;;
2022/05/05 08:49:08;;;;;;;2.5;1.5;;;;;;;;;;;;;
2022/05/05 08:51:34;;;;;;;2.7;1.7;;;;;;;;;;;;;
2022/05/05 08:53:59;;;;;;;2.4;1.6;;;;;;;;;;;;;
2022/05/05 08:56:26;;;;;;;41.9;11.6;;;;;;;;;;;;;
2022/05/05 08:58:51;;;;;;;12.8;4.7;;;;;;;;;;;;;
2022/05/05 09:01:16;;;;;;;26.4;7.9;;;;;;;;;;;;;
2022/05/05 09:03:43;;;;;;;13.1;4.8;;;;;;;;;;;;;
2022/05/05 09:06:08;;;;;;;14.6;5;;;;;;;;;;;;;
2022/05/05 09:08:34;;;;;;;13.3;5.3;;;;;;;;;;;;;
2022/05/05 09:11:01;;;;;;;13.5;5.3;;;;;;;;;;;;;
2022/05/05 09:13:28;;;;;;;46.3;16.1;;;;;;;;;;;;;
2022/05/05 09:15:58;;;;;;;6.8;3.2;;;;;;;;;;;;;
2022/05/05 09:18:25;;;;;;;5.3;2.4;;;;;;;;;;;;;
2022/05/05 09:20:56;;;;;;;4.8;2.4;;;;;;;;;;;;;
2022/05/05 09:23:22;;;;;;;4.3;2.4;;;;;;;;;;;;;
2022/05/05 09:25:51;;;;;;;4.3;2.5;;;;;;;;;;;;;
2022/05/05 09:28:15;;;;;;;5.6;2.5;;;;;;;;;;;;;
2022/05/05 09:30:41;;;;;;;3.6;2.2;;;;;;;;;;;;;
2022/05/05 09:33:07;;;;;;;4.5;2.2;;;;;;;;;;;;;
2022/05/05 09:35:38;;;;;;;3.9;2.7;;;;;;;;;;;;;
2022/05/05 09:38:05;;;;;;;2.3;2.1;;;;;;;;;;;;;
2022/05/05 09:40:30;;;;;;;4;2.5;;;;;;;;;;;;;
2022/05/05 09:42:57;;;;;;;3.4;2.5;;;;;;;;;;;;;
2022/05/05 09:45:22;;;;;;;3.2;2.3;;;;;;;;;;;;;
2022/05/05 09:47:49;;;;;;;3.9;2.3;;;;;;;;;;;;;
2022/05/05 09:50:14;;;;;;;4.9;2.7;;;;;;;;;;;;;
2022/05/05 09:57:44;;;;;;;3.3;2.3;;;;;;;;;;;;;
2022/05/05 10:00:19;;;;;;;5.3;2.7;;;;;;;;;;;;;
2022/05/05 10:04:03;;;;;;;2.9;2.6;;;;;;;;;;;;;
2022/05/05 10:04:53;;;;;;;4.9;2.7;;;;;;;;;;;;;
2022/05/05 10:07:21;;;;;;;2.6;2.4;;;;;;;;;;;;;
2022/05/05 10:09:47;;;;;;;2.7;2.5;;;;;;;;;;;;;
2022/05/05 10:12:14;;;;;;;4.6;2.9;;;;;;;;;;;;;
2022/05/05 10:14:38;;;;;;;4.7;3.9;;;;;;;;;;;;;
2022/05/05 10:17:05;;;;;;;12.1;6.6;;;;;;;;;;;;;
2022/05/05 10:19:30;;;;;;;9.1;5.8;;;;;;;;;;;;;
2022/05/05 10:21:59;;;;;;;9.4;5.8;;;;;;;;;;;;;
2022/05/05 10:24:24;;;;;;;7.6;4.1;;;;;;;;;;;;;
2022/05/05 10:26:49;;;;;;;7.6;4.3;;;;;;;;;;;;;
2022/05/05 10:29:16;;;;;;;2.1;1.9;;;;;;;;;;;;;
2022/05/05 10:31:41;;;;;;;2.3;2.1;;;;;;;;;;;;;
2022/05/05 10:34:07;;;;;;;2.5;2.1;;;;;;;;;;;;;
2022/05/05 10:36:33;;;;;;;2.7;2.5;;;;;;;;;;;;;
2022/05/05 10:38:58;;;;;;;4;2.4;;;;;;;;;;;;;
2022/05/05 10:41:23;;;;;;;2.6;1.9;;;;;;;;;;;;;
2022/05/05 10:43:50;;;;;;;3.1;2.1;;;;;;;;;;;;;
2022/05/05 10:46:16;;;;;;;2.1;1.9;;;;;;;;;;;;;
2022/05/05 10:49:45;;;;;;;2.2;2;;;;;;;;;;;;;
2022/05/05 10:52:12;;;;;;;2.1;1.9;;;;;;;;;;;;;
2022/05/05 10:54:37;;;;;;;2.4;2.2;;;;;;;;;;;;;
2022/05/05 10:57:03;;;;;;;2;1.8;;;;;;;;;;;;;
2022/05/05 10:59:28;;;;;;;1.9;1.8;;;;;;;;;;;;;
2022/05/05 11:01:53;;;;;;;2.3;2.1;;;;;;;;;;;;;
2022/05/05 11:04:20;;;;;;;3.8;2.1;;;;;;;;;;;;;
2022/05/05 11:06:48;;;;;;;2.2;2;;;;;;;;;;;;;
2022/05/05 11:09:11;;;;;;;2.2;2;;;;;;;;;;;;;
2022/05/05 11:11:43;;;;;;;2.1;1.9;;;;;;;;;;;;;
2022/05/05 11:21:31;;;;;;;3.7;2.5;;;;;;;;;;;;;
2022/05/05 11:21:36;;;;;;;2.9;1.9;;;;;;;;;;;;;
2022/05/05 11:23:43;;;;;;;2.9;2;;;;;;;;;;;;;
2022/05/05 11:26:09;;;;;;;3;2.1;;;;;;;;;;;;;
2022/05/05 11:28:36;;;;;;;2.5;1.9;;;;;;;;;;;;;
2022/05/05 11:31:00;;;;;;;2.6;1.9;;;;;;;;;;;;;
2022/05/05 11:33:28;;;;;;;2.8;1.9;;;;;;;;;;;;;
2022/05/05 11:35:52;;;;;;;1.6;1.5;;;;;;;;;;;;;
2022/05/05 11:38:18;;;;;;;2;1.9;;;;;;;;;;;;;
2022/05/05 11:40:43;;;;;;;2;1.8;;;;;;;;;;;;;
2022/05/05 11:45:34;;;;;;;2.3;1.9;;;;;;;;;;;;;
2022/05/05 11:48:02;;;;;;;2.1;1.9;;;;;;;;;;;;;
2022/05/05 11:50:27;;;;;;;2.3;1.7;;;;;;;;;;;;;
2022/05/05 11:52:52;;;;;;;2.9;1.7;;;;;;;;;;;;;
2022/05/05 11:55:17;;;;;;;2.2;2;;;;;;;;;;;;;
2022/05/05 11:57:45;;;;;;;1.9;1.7;;;;;;;;;;;;;
2022/05/05 12:02:35;;;;;;;2.6;1.6;;;;;;;;;;;;;
2022/05/05 12:05:00;;;;;;;2.1;1.8;;;;;;;;;;;;;
2022/05/05 12:07:28;;;;;;;2.5;1.5;;;;;;;;;;;;;
2022/05/05 12:09:53;;;;;;;2.4;2;;;;;;;;;;;;;
2022/05/05 12:12:18;;;;;;;2.2;2;;;;;;;;;;;;;
2022/05/05 12:14:44;;;;;;;1.7;1.6;;;;;;;;;;;;;
2022/05/05 12:17:09;;;;;;;1.7;1.6;;;;;;;;;;;;;
2022/05/05 12:19:34;;;;;;;2.2;1.5;;;;;;;;;;;;;
2022/05/05 12:21:59;;;;;;;2.4;1.9;;;;;;;;;;;;;
2022/05/05 12:24:26;;;;;;;2.5;1.7;;;;;;;;;;;;;
2022/05/05 12:26:50;;;;;;;2.8;2;;;;;;;;;;;;;
2022/05/05 12:29:20;;;;;;;3;1.6;;;;;;;;;;;;;
2022/05/05 12:31:43;;;;;;;2;1.6;;;;;;;;;;;;;
2022/05/05 12:34:09;;;;;;;2.7;2;;;;;;;;;;;;;
2022/05/05 12:36:34;;;;;;;2;1.8;;;;;;;;;;;;;
2022/05/05 12:38:59;;;;;;;3.1;1.6;;;;;;;;;;;;;
2022/05/05 12:41:24;;;;;;;2;1.8;;;;;;;;;;;;;
2022/05/05 12:43:51;;;;;;;2.9;1.8;;;;;;;;;;;;;
2022/05/05 12:46:16;;;;;;;2;1.7;;;;;;;;;;;;;
2022/05/05 12:48:43;;;;;;;1.9;1.7;;;;;;;;;;;;;
2022/05/05 12:51:08;;;;;;;2.5;2;;;;;;;;;;;;;
2022/05/05 13:00:49;;;;;;;1.9;1.8;;;;;;;;;;;;;
2022/05/05 13:03:18;;;;;;;1.9;1.8;;;;;;;;;;;;;
2022/05/05 13:05:42;;;;;;;2.4;1.6;;;;;;;;;;;;;
2022/05/05 13:08:08;;;;;;;2.3;2.1;;;;;;;;;;;;;
2022/05/05 13:10:33;;;;;;;2;1.7;;;;;;;;;;;;;
2022/05/05 13:12:59;;;;;;;2.5;2.2;;;;;;;;;;;;;
2022/05/05 13:17:51;;;;;;;2;1.8;;;;;;;;;;;;;
2022/05/05 13:20:15;;;;;;;2;1.6;;;;;;;;;;;;;
2022/05/05 13:22:41;;;;;;;1.7;1.6;;;;;;;;;;;;;
2022/05/05 13:25:06;;;;;;;1.7;1.6;;;;;;;;;;;;;
2022/05/05 13:27:31;;;;;;;2.7;1.9;;;;;;;;;;;;;
2022/05/05 13:30:00;;;;;;;2.1;1.9;;;;;;;;;;;;;
2022/05/05 13:32:25;;;;;;;2.1;1.7;;;;;;;;;;;;;
2022/05/05 13:34:53;;;;;;;2.5;1.9;;;;;;;;;;;;;
2022/05/05 13:37:17;;;;;;;2.6;1.7;;;;;;;;;;;;;
2022/05/05 13:39:44;;;;;;;2.5;1.4;;;;;;;;;;;;;
2022/05/05 13:42:09;;;;;;;1.6;1.5;;;;;;;;;;;;;
2022/05/05 13:44:35;;;;;;;2.1;1.7;;;;;;;;;;;;;
2022/05/05 13:47:00;;;;;;;3;1.9;;;;;;;;;;;;;
2022/05/05 13:49:27;;;;;;;1.7;1.6;;;;;;;;;;;;;
2022/05/05 13:51:52;;;;;;;3.3;1.6;;;;;;;;;;;;;
2022/05/05 13:54:17;;;;;;;2.5;1.8;;;;;;;;;;;;;
2022/05/05 13:56:42;;;;;;;2;1.8;;;;;;;;;;;;;
2022/05/05 13:59:08;;;;;;;3.3;1.8;;;;;;;;;;;;;
2022/05/05 14:01:34;;;;;;;2.4;1.8;;;;;;;;;;;;;
2022/05/05 14:04:01;;;;;;;2;1.8;;;;;;;;;;;;;
2022/05/05 14:06:28;;;;;;;2.9;1.9;;;;;;;;;;;;;
2022/05/05 14:13:41;;;;;;;2.1;1.9;;;;;;;;;;;;;
2022/05/05 14:16:06;;;;;;;2.1;1.9;;;;;;;;;;;;;
2022/05/05 14:18:32;;;;;;;2.2;1.8;;;;;;;;;;;;;
2022/05/05 14:20:57;;;;;;;1.8;1.7;;;;;;;;;;;;;
2022/05/05 14:23:23;;;;;;;2.1;1.9;;;;;;;;;;;;;
2022/05/05 14:25:48;;;;;;;2.2;1.9;;;;;;;;;;;;;
2022/05/05 14:28:14;;;;;;;2.3;2.1;;;;;;;;;;;;;
2022/05/05 14:30:39;;;;;;;2.6;2.2;;;;;;;;;;;;;
2022/05/05 14:33:06;;;;;;;2;1.9;;;;;;;;;;;;;
2022/05/05 14:35:31;;;;;;;2.3;2.1;;;;;;;;;;;;;
2022/05/05 14:37:59;;;;;;;2.7;2.2;;;;;;;;;;;;;
2022/05/05 14:40:22;;;;;;;2.4;2.2;;;;;;;;;;;;;
2022/05/05 14:42:47;;;;;;;3.9;2.7;;;;;;;;;;;;;
2022/05/05 14:45:16;;;;;;;2.9;2.6;;;;;;;;;;;;;
2022/05/05 14:47:37;;;;;;;3.8;2.5;;;;;;;;;;;;;
2022/05/05 14:50:02;;;;;;;3.9;2.7;;;;;;;;;;;;;
2022/05/05 14:52:28;;;;;;;3.3;2.7;;;;;;;;;;;;;
2022/05/05 14:54:53;;;;;;;3.9;2.8;;;;;;;;;;;;;
2022/05/05 14:57:19;;;;;;;4.7;2.7;;;;;;;;;;;;;
2022/05/05 14:59:45;;;;;;;3;2.7;;;;;;;;;;;;;
2022/05/05 15:02:11;;;;;;;4.8;3.2;;;;;;;;;;;;;
2022/05/05 15:04:37;;;;;;;5;2.9;;;;;;;;;;;;;
2022/05/05 15:07:02;;;;;;;5.3;3.2;;;;;;;;;;;;;
2022/05/05 15:09:28;;;;;;;4.7;2.9;;;;;;;;;;;;;
2022/05/05 15:11:55;;;;;;;7.8;3.6;;;;;;;;;;;;;
2022/05/05 15:14:20;;;;;;;6;3.6;;;;;;;;;;;;;
2022/05/05 15:16:45;;;;;;;3.3;2.8;;;;;;;;;;;;;
2022/05/05 15:19:11;;;;;;;5.2;2.8;;;;;;;;;;;;;
2022/05/05 15:21:36;;;;;;;4.4;2.3;;;;;;;;;;;;;
2022/05/05 15:24:02;;;;;;;4.3;2.9;;;;;;;;;;;;;
2022/05/05 15:26:27;;;;;;;4.9;2.7;;;;;;;;;;;;;
2022/05/05 15:28:53;;;;;;;6.4;3;;;;;;;;;;;;;
2022/05/05 15:31:18;;;;;;;5;3;;;;;;;;;;;;;
2022/05/05 15:33:46;;;;;;;2.6;2.4;;;;;;;;;;;;;
2022/05/05 15:36:11;;;;;;;2.7;2.3;;;;;;;;;;;;;
2022/05/05 15:38:37;;;;;;;2.7;2.2;;;;;;;;;;;;;
2022/05/05 15:41:02;;;;;;;2.8;2.5;;;;;;;;;;;;;
2022/05/05 15:43:29;;;;;;;3.1;2.3;;;;;;;;;;;;;
2022/05/05 15:45:54;;;;;;;2.4;1.9;;;;;;;;;;;;;
2022/05/05 15:48:21;;;;;;;2.8;2.2;;;;;;;;;;;;;
2022/05/05 15:50:46;;;;;;;4.6;2.4;;;;;;;;;;;;;
2022/05/05 15:53:11;;;;;;;5.2;2.9;;;;;;;;;;;;;
2022/05/05 15:55:36;;;;;;;3.2;2.8;;;;;;;;;;;;;
2022/05/05 15:58:02;;;;;;;3;2.7;;;;;;;;;;;;;
2022/05/05 16:00:28;;;;;;;4.2;2.8;;;;;;;;;;;;;
2022/05/05 16:02:54;;;;;;;3.1;2.6;;;;;;;;;;;;;
2022/05/05 16:05:19;;;;;;;3;2.7;;;;;;;;;;;;;
2022/05/05 16:07:45;;;;;;;4.3;2.8;;;;;;;;;;;;;
2022/05/05 16:10:09;;;;;;;3.2;2.9;;;;;;;;;;;;;
2022/05/05 16:12:35;;;;;;;3.2;2.9;;;;;;;;;;;;;
2022/05/05 16:15:00;;;;;;;4.6;3;;;;;;;;;;;;;
2022/05/05 16:17:28;;;;;;;3.9;2.9;;;;;;;;;;;;;
2022/05/05 16:19:53;;;;;;;6;3.3;;;;;;;;;;;;;
2022/05/05 16:22:18;;;;;;;4;3.2;;;;;;;;;;;;;
2022/05/05 16:31:59;;;;;;;6.9;4.6;;;;;;;;;;;;;
2022/05/05 16:34:25;;;;;;;5.4;4.3;;;;;;;;;;;;;
2022/05/05 16:36:50;;;;;;;5;4.3;;;;;;;;;;;;;
2022/05/05 16:39:17;;;;;;;4.4;3.6;;;;;;;;;;;;;
2022/05/05 16:41:42;;;;;;;4.4;3.9;;;;;;;;;;;;;
2022/05/05 16:44:09;;;;;;;4.1;3.7;;;;;;;;;;;;;
2022/05/05 16:46:36;;;;;;;4.8;3.7;;;;;;;;;;;;;
2022/05/05 16:49:01;;;;;;;3.7;3.3;;;;;;;;;;;;;
2022/05/05 16:51:26;;;;;;;3.9;3.5;;;;;;;;;;;;;
2022/05/05 16:53:52;;;;;;;3.6;3.3;;;;;;;;;;;;;
2022/05/05 16:56:17;;;;;;;7.1;4.6;;;;;;;;;;;;;
2022/05/05 16:58:43;;;;;;;12.4;8.3;;;;;;;;;;;;;
2022/05/05 17:01:13;;;;;;;14.4;8.4;;;;;;;;;;;;;
2022/05/05 17:03:33;;;;;;;5.4;4.5;;;;;;;;;;;;;
2022/05/05 17:05:59;;;;;;;5.1;4.3;;;;;;;;;;;;;
2022/05/05 17:08:24;;;;;;;5.2;4.6;;;;;;;;;;;;;
2022/05/05 17:10:49;;;;;;;5.5;4.9;;;;;;;;;;;;;
2022/05/05 17:13:14;;;;;;;5.9;4.9;;;;;;;;;;;;;
2022/05/05 17:15:41;;;;;;;5.1;4.6;;;;;;;;;;;;;
2022/05/05 17:18:06;;;;;;;5.5;4.4;;;;;;;;;;;;;
2022/05/05 17:20:32;;;;;;;6.4;5.2;;;;;;;;;;;;;
2022/05/05 17:22:57;;;;;;;4.5;4.1;;;;;;;;;;;;;
2022/05/05 17:25:25;;;;;;;3.7;3.4;;;;;;;;;;;;;
2022/05/05 17:27:48;;;;;;;6.4;4;;;;;;;;;;;;;
2022/05/05 17:30:16;;;;;;;4.8;4.1;;;;;;;;;;;;;
2022/05/05 17:32:40;;;;;;;3.8;3.5;;;;;;;;;;;;;
2022/05/05 17:35:05;;;;;;;5.7;3.8;;;;;;;;;;;;;
2022/05/05 17:37:30;;;;;;;4.7;4.2;;;;;;;;;;;;;
2022/05/05 17:39:55;;;;;;;4.6;4.1;;;;;;;;;;;;;
2022/05/05 17:42:21;;;;;;;4.6;4.1;;;;;;;;;;;;;
2022/05/05 17:52:02;;;;;;;6.6;5.5;;;;;;;;;;;;;
2022/05/05 17:54:28;;;;;;;6.2;5.6;;;;;;;;;;;;;
2022/05/05 17:56:53;;;;;;;6.2;5.4;;;;;;;;;;;;;
2022/05/05 17:59:20;;;;;;;11.6;9;;;;;;;;;;;;;
2022/05/05 18:01:45;;;;;;;6;4.9;;;;;;;;;;;;;
2022/05/05 18:04:11;;;;;;;7.5;5.4;;;;;;;;;;;;;
2022/05/05 18:06:36;;;;;;;6.1;5.2;;;;;;;;;;;;;
2022/05/05 18:09:01;;;;;;;8.3;6.3;;;;;;;;;;;;;
2022/05/05 18:11:27;;;;;;;7.8;5.8;;;;;;;;;;;;;
2022/05/05 18:13:53;;;;;;;8.7;5.9;;;;;;;;;;;;;
2022/05/05 18:16:18;;;;;;;8.4;6.3;;;;;;;;;;;;;
2022/05/05 18:18:49;;;;;;;9.3;6;;;;;;;;;;;;;
2022/05/05 18:21:11;;;;;;;6.2;5.2;;;;;;;;;;;;;
2022/05/05 18:23:37;;;;;;;5.6;5;;;;;;;;;;;;;
2022/05/05 18:26:02;;;;;;;6.8;4.8;;;;;;;;;;;;;
2022/05/05 18:28:28;;;;;;;6.4;4.6;;;;;;;;;;;;;
2022/05/05 18:30:53;;;;;;;9.4;6.3;;;;;;;;;;;;;
2022/05/05 18:33:19;;;;;;;11.9;8.6;;;;;;;;;;;;;
2022/05/05 18:35:44;;;;;;;9.6;6.3;;;;;;;;;;;;;
2022/05/05 18:38:10;;;;;;;10.8;7.1;;;;;;;;;;;;;
2022/05/05 18:40:35;;;;;;;8.7;6.6;;;;;;;;;;;;;
2022/05/05 18:43:01;;;;;;;7.8;6.7;;;;;;;;;;;;;
2022/05/05 18:45:26;;;;;;;10.1;6.4;;;;;;;;;;;;;
2022/05/05 18:47:52;;;;;;;9.7;6.1;;;;;;;;;;;;;
2022/05/05 18:50:17;;;;;;;8.7;6.5;;;;;;;;;;;;;
2022/05/05 18:52:44;;;;;;;7.6;6.1;;;;;;;;;;;;;
2022/05/05 18:55:09;;;;;;;8.9;6.3;;;;;;;;;;;;;
2022/05/05 18:57:36;;;;;;;11.4;6.4;;;;;;;;;;;;;
2022/05/05 19:00:00;;;;;;;9.7;6;;;;;;;;;;;;;
2022/05/05 19:02:26;;;;;;;7.5;6.1;;;;;;;;;;;;;
2022/05/05 19:04:51;;;;;;;9.8;6.9;;;;;;;;;;;;;
2022/05/05 19:07:17;;;;;;;11.4;7.1;;;;;;;;;;;;;
2022/05/05 19:09:42;;;;;;;13.1;8;;;;;;;;;;;;;
2022/05/05 19:12:07;;;;;;;9.3;7.2;;;;;;;;;;;;;
2022/05/05 19:14:33;;;;;;;9.6;7;;;;;;;;;;;;;
2022/05/05 19:16:58;;;;;;;7.5;6;;;;;;;;;;;;;
2022/05/05 19:19:23;;;;;;;8.1;5.8;;;;;;;;;;;;;
2022/05/05 19:21:50;;;;;;;8.8;6;;;;;;;;;;;;;
2022/05/05 19:24:15;;;;;;;7.3;5.6;;;;;;;;;;;;;
2022/05/05 19:26:41;;;;;;;6.9;6.2;;;;;;;;;;;;;
2022/05/05 19:29:06;;;;;;;32.1;21.3;;;;;;;;;;;;;
2022/05/05 19:31:33;;;;;;;10.8;8;;;;;;;;;;;;;